createdAt,value
2023-02-09T00:01:41.459Z,9.60
2023-02-09T00:04:10.544Z,10.30
2023-02-09T00:06:37.319Z,10.63
2023-02-09T00:09:04.672Z,9.95
2023-02-09T00:11:51.153Z,11.05
2023-02-09T00:14:21.730Z,9.40
2023-02-09T00:16:50.220Z,8.88
2023-02-09T00:19:18.210Z,8.80
2023-02-09T00:21:59.032Z,10.35
2023-02-09T00:24:29.408Z,9.55
2023-02-09T00:26:56.520Z,12.95
2023-02-09T00:29:29.550Z,9.77
2023-02-09T00:31:56.606Z,11.02
2023-02-09T00:34:23.225Z,10.00
2023-02-09T00:36:51.411Z,8.65
2023-02-09T00:39:18.372Z,9.90
2023-02-09T00:42:03.577Z,9.93
2023-02-09T00:44:30.336Z,9.48
2023-02-09T00:46:57.156Z,9.60
2023-02-09T00:49:24.484Z,9.63
2023-02-09T00:51:55.710Z,9.15
2023-02-09T00:54:22.437Z,9.55
2023-02-09T00:56:49.577Z,9.48
2023-02-09T00:59:17.036Z,10.45
2023-02-09T01:01:44.242Z,9.80
2023-02-09T01:04:14.903Z,10.15
2023-02-09T01:06:45.177Z,8.85
2023-02-09T01:09:13.407Z,10.68
2023-02-09T01:11:43.933Z,9.15
2023-02-09T01:14:14.153Z,9.82
2023-02-09T01:16:49.264Z,8.38
2023-02-09T01:19:19.568Z,10.25
2023-02-09T01:21:49.686Z,10.23
2023-02-09T01:24:16.634Z,10.15
2023-02-09T01:26:47.296Z,9.20
2023-02-09T01:29:17.729Z,10.18
2023-02-09T01:31:44.819Z,9.48
2023-02-09T01:34:14.725Z,11.05
2023-02-09T01:36:41.776Z,10.43
2023-02-09T01:39:10.261Z,10.40
2023-02-09T01:41:37.740Z,9.23
2023-02-09T01:44:30.366Z,9.50
2023-02-09T01:47:00.281Z,9.68
2023-02-09T01:49:28.467Z,9.02
2023-02-09T01:52:00.686Z,9.60
2023-02-09T01:54:44.089Z,10.40
2023-02-09T01:57:19.202Z,9.77
2023-02-09T01:59:50.860Z,9.27
2023-02-09T02:02:17.793Z,8.68
2023-02-09T02:04:45.553Z,10.57
2023-02-09T02:07:23.209Z,9.30
2023-02-09T02:09:50.446Z,9.32
2023-02-09T02:12:18.564Z,8.80
2023-02-09T02:14:46.704Z,9.85
2023-02-09T02:17:54.669Z,10.10
2023-02-09T02:20:56.441Z,8.65
2023-02-09T02:24:08.018Z,9.63
2023-02-09T02:26:58.106Z,10.20
2023-02-09T02:29:54.660Z,9.00
2023-02-09T02:32:36.275Z,9.07
2023-02-09T02:35:20.272Z,9.85
2023-02-09T02:38:01.384Z,9.38
2023-02-09T02:40:55.777Z,8.70
2023-02-09T02:43:40.383Z,7.85
2023-02-09T02:46:20.658Z,7.85
2023-02-09T02:49:03.738Z,10.18
2023-02-09T02:51:36.866Z,9.40
2023-02-09T02:54:09.581Z,8.85
2023-02-09T02:56:43.536Z,9.68
2023-02-09T02:59:19.584Z,8.10
2023-02-09T03:01:59.753Z,8.05
2023-02-09T03:04:28.544Z,9.00
2023-02-09T03:06:55.183Z,9.70
2023-02-09T03:09:22.568Z,8.25
2023-02-09T03:11:55.162Z,7.72
2023-02-09T03:14:41.851Z,9.73
2023-02-09T03:17:35.735Z,9.40
2023-02-09T03:20:25.450Z,8.38
2023-02-09T03:23:05.382Z,8.68
2023-02-09T03:28:33.647Z,9.00
2023-02-09T03:31:10.126Z,7.95
2023-02-09T03:33:38.898Z,8.07
2023-02-09T03:36:10.355Z,7.82
2023-02-09T03:38:37.328Z,7.32
2023-02-09T03:41:05.490Z,8.57
2023-02-09T03:46:39.887Z,7.30
2023-02-09T03:49:06.968Z,7.57
2023-02-09T03:51:34.950Z,8.07
2023-02-09T03:54:03.346Z,7.78
2023-02-09T03:56:30.071Z,7.97
2023-02-09T03:58:56.924Z,8.13
2023-02-09T04:01:26.861Z,8.15
2023-02-09T04:03:55.313Z,8.48
2023-02-09T04:06:23.184Z,8.48
2023-02-09T04:08:51.458Z,7.63
2023-02-09T04:11:32.669Z,7.05
2023-02-09T04:13:59.556Z,7.57
2023-02-09T04:16:26.220Z,7.68
2023-02-09T04:18:53.670Z,8.25
2023-02-09T04:21:20.272Z,8.75
2023-02-09T04:23:47.135Z,7.50
2023-02-09T04:26:14.918Z,8.30
2023-02-09T04:28:41.773Z,8.55
2023-02-09T04:31:08.882Z,7.25
2023-02-09T04:33:35.919Z,7.90
2023-02-09T04:36:03.168Z,7.70
2023-02-09T04:38:29.811Z,8.00
2023-02-09T04:40:59.357Z,7.53
2023-02-09T04:43:26.595Z,8.55
2023-02-09T04:45:54.398Z,8.02
2023-02-09T04:48:22.812Z,9.13
2023-02-09T04:50:53.417Z,7.70
2023-02-09T04:53:21.863Z,8.38
2023-02-09T04:55:49.047Z,8.45
2023-02-09T04:58:37.013Z,9.60
2023-02-09T05:01:05.214Z,8.70
2023-02-09T05:03:32.169Z,8.93
2023-02-09T05:06:02.598Z,8.23
2023-02-09T05:08:30.479Z,9.73
2023-02-09T05:11:00.300Z,9.02
2023-02-09T05:13:27.138Z,7.97
2023-02-09T05:15:53.993Z,8.63
2023-02-09T05:18:21.079Z,8.05
2023-02-09T05:20:48.267Z,8.20
2023-02-09T05:23:15.088Z,8.43
2023-02-09T05:25:42.133Z,7.93
2023-02-09T05:28:09.158Z,8.88
2023-02-09T05:30:35.950Z,8.82
2023-02-09T05:33:13.857Z,8.05
2023-02-09T05:35:40.350Z,9.32
2023-02-09T05:38:07.398Z,8.40
2023-02-09T05:40:34.462Z,8.52
2023-02-09T05:43:02.456Z,8.68
2023-02-09T05:45:29.369Z,7.60
2023-02-09T05:47:56.147Z,7.65
2023-02-09T05:50:22.685Z,8.13
2023-02-09T05:52:49.358Z,9.65
2023-02-09T05:55:16.066Z,8.70
2023-02-09T05:57:44.025Z,7.93
2023-02-09T06:00:11.542Z,8.55
2023-02-09T06:02:40.802Z,8.25
2023-02-09T06:05:07.823Z,7.88
2023-02-09T06:07:34.513Z,8.77
2023-02-09T06:10:01.372Z,8.05
2023-02-09T06:12:28.032Z,7.80
2023-02-09T06:14:54.623Z,7.50
2023-02-09T06:17:24.913Z,8.95
2023-02-09T06:19:52.777Z,8.95
2023-02-09T06:22:19.473Z,7.88
2023-02-09T06:24:46.341Z,7.70
2023-02-09T06:27:13.543Z,9.20
2023-02-09T06:29:40.876Z,8.57
2023-02-09T06:32:08.178Z,6.35
2023-02-09T06:34:35.239Z,8.35
2023-02-09T06:37:01.917Z,8.32
2023-02-09T06:39:29.720Z,8.75
2023-02-09T06:41:56.426Z,9.00
2023-02-09T06:44:23.080Z,8.43
2023-02-09T06:46:49.811Z,7.75
2023-02-09T06:49:16.743Z,8.27
2023-02-09T06:51:43.436Z,8.00
2023-02-09T06:54:10.231Z,9.43
2023-02-09T06:56:37.089Z,8.55
2023-02-09T06:59:04.778Z,8.32
2023-02-09T07:01:31.692Z,7.57
2023-02-09T07:03:58.470Z,7.53
2023-02-09T07:06:25.375Z,8.38
2023-02-09T07:08:52.329Z,7.32
2023-02-09T07:11:19.774Z,8.07
2023-02-09T07:13:47.149Z,7.25
2023-02-09T07:16:14.073Z,8.32
2023-02-09T07:18:40.972Z,7.38
2023-02-09T07:21:19.960Z,7.80
2023-02-09T07:23:47.717Z,7.43
2023-02-09T07:26:16.271Z,8.27
2023-02-09T07:28:43.309Z,8.35
2023-02-09T07:31:12.259Z,8.15
2023-02-09T07:33:39.047Z,7.68
2023-02-09T07:36:11.602Z,8.20
2023-02-09T07:38:39.916Z,7.50
2023-02-09T07:41:12.766Z,7.97
2023-02-09T07:43:39.338Z,8.15
2023-02-09T07:46:07.606Z,8.20
2023-02-09T07:48:34.841Z,7.78
2023-02-09T07:51:01.362Z,7.97
2023-02-09T07:53:28.528Z,7.60
2023-02-09T07:55:55.387Z,8.10
2023-02-09T07:58:22.166Z,8.80
2023-02-09T08:00:50.161Z,8.18
2023-02-09T08:03:19.893Z,8.80
2023-02-09T08:05:58.554Z,8.20
2023-02-09T08:08:25.282Z,9.13
2023-02-09T08:10:52.849Z,9.68
2023-02-09T08:13:19.464Z,8.98
2023-02-09T08:15:53.391Z,8.95
2023-02-09T08:18:27.832Z,9.15
2023-02-09T08:20:54.885Z,8.70
2023-02-09T08:23:33.711Z,9.70
2023-02-09T08:26:05.249Z,8.60
2023-02-09T08:28:43.110Z,8.57
2023-02-09T08:31:15.548Z,9.50
2023-02-09T08:33:43.398Z,10.52
2023-02-09T08:36:11.200Z,9.35
2023-02-09T08:38:38.259Z,9.00
2023-02-09T08:41:06.214Z,8.50
2023-02-09T08:43:33.134Z,9.02
2023-02-09T08:46:04.036Z,9.27
2023-02-09T08:48:32.945Z,8.57
2023-02-09T08:51:00.626Z,8.55
2023-02-09T08:53:28.069Z,8.30
2023-02-09T08:55:54.651Z,7.68
2023-02-09T08:58:21.402Z,8.45
2023-02-09T09:00:47.991Z,7.95
2023-02-09T09:03:14.667Z,8.35
2023-02-09T09:05:41.187Z,8.07
2023-02-09T09:08:08.686Z,7.53
2023-02-09T09:10:35.206Z,8.68
2023-02-09T09:13:01.742Z,7.40
2023-02-09T09:15:28.272Z,7.88
2023-02-09T09:17:54.788Z,7.70
2023-02-09T09:20:22.692Z,7.63
2023-02-09T09:22:49.177Z,7.13
2023-02-09T09:25:15.713Z,7.43
2023-02-09T09:27:42.187Z,6.82
2023-02-09T09:30:09.335Z,7.28
2023-02-09T09:32:35.928Z,7.95
2023-02-09T09:35:03.518Z,7.93
2023-02-09T09:37:30.245Z,7.60
2023-02-09T09:39:57.116Z,7.32
2023-02-09T09:42:38.518Z,7.07
2023-02-09T09:45:08.628Z,8.20
2023-02-09T09:47:38.743Z,7.22
2023-02-09T09:50:26.302Z,6.65
2023-02-09T09:53:18.313Z,7.13
2023-02-09T09:55:47.193Z,8.43
2023-02-09T09:58:19.319Z,6.45
2023-02-09T10:03:21.071Z,5.97
2023-02-09T10:05:52.322Z,6.68
2023-02-09T10:08:33.099Z,6.90
2023-02-09T10:11:11.232Z,6.60
2023-02-09T10:13:46.857Z,6.60
2023-02-09T10:16:25.390Z,6.38
2023-02-09T10:18:54.943Z,6.05
2023-02-09T10:21:24.002Z,6.35
2023-02-09T10:24:10.156Z,6.20
2023-02-09T10:26:40.079Z,5.72
2023-02-09T10:29:12.883Z,6.28
2023-02-09T10:31:44.759Z,6.10
2023-02-09T10:36:45.835Z,5.97
2023-02-09T10:39:12.326Z,5.82
2023-02-09T10:41:43.902Z,5.65
2023-02-09T10:44:34.145Z,7.00
2023-02-09T10:47:19.033Z,5.75
2023-02-09T10:50:11.153Z,5.63
2023-02-09T10:52:42.218Z,6.32
2023-02-09T10:55:22.990Z,7.32
2023-02-09T10:57:49.538Z,5.93
2023-02-09T11:00:16.006Z,6.43
2023-02-09T11:02:58.511Z,6.80
2023-02-09T11:05:34.496Z,6.45
2023-02-09T11:08:16.762Z,6.32
2023-02-09T11:11:06.389Z,6.43
2023-02-09T11:13:34.426Z,5.75
2023-02-09T11:16:19.494Z,6.00
2023-02-09T11:18:57.823Z,6.38
2023-02-09T11:21:37.185Z,5.95
2023-02-09T11:24:16.145Z,6.32
2023-02-09T11:26:58.188Z,6.20
2023-02-09T11:29:34.118Z,6.53
2023-02-09T11:32:13.982Z,6.03
2023-02-09T11:35:03.538Z,6.18
2023-02-09T11:37:42.248Z,5.95
2023-02-09T11:40:34.838Z,5.60
2023-02-09T11:43:10.488Z,6.63
2023-02-09T11:45:49.600Z,6.15
2023-02-09T11:48:40.695Z,6.13
2023-02-09T11:51:19.316Z,6.30
2023-02-09T11:54:22.128Z,6.30
2023-02-09T11:56:51.964Z,6.75
2023-02-09T11:59:28.589Z,5.60
2023-02-09T12:01:59.837Z,6.03
2023-02-09T12:04:55.458Z,6.53
2023-02-09T12:07:37.418Z,6.13
2023-02-09T12:10:11.944Z,5.90
2023-02-09T12:12:56.029Z,6.32
2023-02-09T12:17:56.587Z,5.65
2023-02-09T12:20:39.385Z,5.70
2023-02-09T12:23:33.796Z,5.75
2023-02-09T12:26:15.455Z,6.07
2023-02-09T12:29:04.481Z,6.13
2023-02-09T12:31:53.116Z,5.43
2023-02-09T12:34:28.749Z,5.57
2023-02-09T12:37:17.019Z,5.80
2023-02-09T12:40:06.899Z,5.80
2023-02-09T12:42:45.108Z,6.07
2023-02-09T12:45:41.458Z,6.15
2023-02-09T12:48:07.934Z,6.00
2023-02-09T12:50:47.541Z,5.90
2023-02-09T12:53:44.114Z,6.10
2023-02-09T12:58:46.025Z,6.28
2023-02-09T13:01:17.419Z,5.93
2023-02-09T13:03:52.516Z,5.72
2023-02-09T13:06:38.498Z,5.55
2023-02-09T13:09:09.661Z,6.50
2023-02-09T13:11:53.410Z,6.18
2023-02-09T13:14:23.718Z,6.35
2023-02-09T13:17:35.392Z,6.53
2023-02-09T13:20:21.532Z,6.20
2023-02-09T13:23:16.741Z,5.25
2023-02-09T13:25:44.377Z,5.75
2023-02-09T13:28:19.954Z,5.75
2023-02-09T13:30:47.077Z,5.80
2023-02-09T13:33:28.256Z,5.28
2023-02-09T13:35:54.678Z,5.97
2023-02-09T13:38:21.489Z,6.10
2023-02-09T13:40:50.439Z,5.40
2023-02-09T13:43:43.274Z,5.45
2023-02-09T13:46:24.364Z,5.78
2023-02-09T13:48:51.008Z,5.50
2023-02-09T13:51:19.801Z,6.13
2023-02-09T13:53:59.936Z,5.05
2023-02-09T13:56:27.189Z,6.15
2023-02-09T13:58:54.609Z,6.75
2023-02-09T14:01:29.993Z,6.15
2023-02-09T14:04:03.268Z,5.82
2023-02-09T14:06:58.280Z,5.43
2023-02-09T14:09:32.692Z,5.85
2023-02-09T14:12:03.686Z,5.90
2023-02-09T14:14:55.000Z,6.47
2023-02-09T14:17:38.892Z,5.55
2023-02-09T14:20:24.560Z,6.00
2023-02-09T14:22:59.451Z,5.45
2023-02-09T14:25:28.508Z,5.60
2023-02-09T14:27:55.828Z,5.57
2023-02-09T14:30:36.511Z,5.47
2023-02-09T14:33:04.877Z,5.18
2023-02-09T14:35:36.851Z,5.47
2023-02-09T14:38:04.063Z,5.18
2023-02-09T14:40:34.486Z,5.57
2023-02-09T14:43:10.133Z,5.40
2023-02-09T14:45:47.049Z,5.40
2023-02-09T14:48:28.204Z,5.40
2023-02-09T14:50:58.791Z,4.85
2023-02-09T14:53:29.340Z,5.18
2023-02-09T14:55:57.070Z,5.47
2023-02-09T14:58:27.239Z,5.18
2023-02-09T15:00:56.443Z,5.65
2023-02-09T15:03:23.134Z,5.07
2023-02-09T15:05:52.048Z,5.57
2023-02-09T15:08:21.743Z,5.20
2023-02-09T15:10:55.476Z,5.20
2023-02-09T15:13:23.091Z,4.97
2023-02-09T15:15:50.081Z,5.70
2023-02-09T15:18:27.518Z,5.18
2023-02-09T15:20:54.330Z,4.90
2023-02-09T15:23:20.914Z,5.22
2023-02-09T15:25:48.667Z,4.90
2023-02-09T15:28:34.536Z,4.28
2023-02-09T15:31:01.575Z,4.93
2023-02-09T15:33:29.258Z,5.05
2023-02-09T15:35:58.957Z,4.65
2023-02-09T15:38:27.666Z,5.03
2023-02-09T15:41:12.971Z,5.00
2023-02-09T15:43:57.976Z,4.90
2023-02-09T15:46:42.790Z,5.00
2023-02-09T15:49:09.327Z,5.25
2023-02-09T15:51:38.524Z,4.97
2023-02-09T15:54:09.202Z,4.85
2023-02-09T15:56:36.771Z,4.57
2023-02-09T15:59:05.524Z,5.32
2023-02-09T16:01:35.430Z,5.40
2023-02-09T16:04:13.573Z,4.85
2023-02-09T16:06:44.407Z,5.03
2023-02-09T16:09:23.613Z,5.47
2023-02-09T16:11:50.167Z,5.10
2023-02-09T16:14:20.520Z,5.00
2023-02-09T16:16:47.729Z,5.07
2023-02-09T16:19:14.776Z,5.20
2023-02-09T16:21:43.620Z,5.40
2023-02-09T16:24:21.357Z,5.47
2023-02-09T16:26:48.047Z,5.00
2023-02-09T16:29:15.742Z,4.65
2023-02-09T16:31:42.379Z,4.82
2023-02-09T16:34:15.172Z,4.90
2023-02-09T16:36:42.023Z,5.45
2023-02-09T16:39:20.433Z,4.50
2023-02-09T16:41:48.107Z,5.88
2023-02-09T16:44:23.396Z,7.13
2023-02-09T16:46:53.186Z,8.02
2023-02-09T16:49:35.943Z,6.75
2023-02-09T16:52:13.088Z,5.38
2023-02-09T16:54:47.204Z,4.88
2023-02-09T16:57:17.111Z,5.28
2023-02-09T16:59:44.235Z,5.65
2023-02-09T17:02:33.683Z,8.25
2023-02-09T17:05:01.837Z,6.50
2023-02-09T17:07:32.997Z,7.78
2023-02-09T17:10:02.242Z,6.25
2023-02-09T17:12:29.083Z,5.75
2023-02-09T17:14:55.828Z,5.35
2023-02-09T17:17:23.167Z,4.80
2023-02-09T17:19:50.932Z,4.75
2023-02-09T17:22:18.016Z,5.53
2023-02-09T17:24:47.135Z,6.03
2023-02-09T17:27:13.800Z,6.13
2023-02-09T17:29:40.269Z,6.47
2023-02-09T17:32:06.854Z,6.00
2023-02-09T17:34:33.389Z,6.05
2023-02-09T17:36:59.893Z,5.65
2023-02-09T17:39:26.381Z,5.80
2023-02-09T17:41:53.052Z,5.82
2023-02-09T17:44:43.657Z,6.05
2023-02-09T17:47:20.108Z,5.85
2023-02-09T17:49:47.170Z,5.57
2023-02-09T17:52:19.102Z,5.18
2023-02-09T17:54:46.035Z,5.93
2023-02-09T17:57:23.216Z,5.88
2023-02-09T17:59:49.678Z,5.35
2023-02-09T18:02:18.056Z,5.80
2023-02-09T18:04:44.641Z,6.22
2023-02-09T18:07:12.898Z,6.50
2023-02-09T18:09:39.452Z,6.55
2023-02-09T18:12:29.146Z,6.45
2023-02-09T18:14:55.935Z,5.63
2023-02-09T18:17:22.495Z,6.07
2023-02-09T18:19:48.971Z,6.70
2023-02-09T18:22:17.418Z,7.32
2023-02-09T18:24:44.198Z,5.93
2023-02-09T18:27:17.486Z,6.70
2023-02-09T18:29:44.003Z,6.38
2023-02-09T18:32:14.636Z,5.80
2023-02-09T18:34:41.296Z,6.28
2023-02-09T18:37:07.743Z,6.53
2023-02-09T18:39:36.718Z,12.48
2023-02-09T18:42:03.248Z,16.58
2023-02-09T18:44:34.720Z,10.48
2023-02-09T18:47:02.068Z,7.43
2023-02-09T18:49:29.730Z,5.47
2023-02-09T18:52:02.482Z,6.28
2023-02-09T18:54:32.013Z,6.65
2023-02-09T18:56:58.790Z,7.35
2023-02-09T18:59:32.581Z,6.43
2023-02-09T19:02:04.905Z,7.45
2023-02-09T19:04:31.669Z,6.50
2023-02-09T19:06:58.745Z,5.82
2023-02-09T19:09:32.626Z,5.78
2023-02-09T19:11:59.499Z,6.20
2023-02-09T19:14:37.759Z,6.22
2023-02-09T19:17:15.472Z,6.68
2023-02-09T19:19:42.782Z,7.03
2023-02-09T19:22:10.172Z,6.32
2023-02-09T19:24:36.884Z,6.28
2023-02-09T19:27:05.490Z,6.57
2023-02-09T19:29:32.901Z,6.28
2023-02-09T19:31:59.418Z,6.47
2023-02-09T19:37:17.647Z,6.43
2023-02-09T19:39:54.176Z,6.80
2023-02-09T19:42:24.396Z,6.97
2023-02-09T19:44:53.897Z,7.00
2023-02-09T19:47:26.706Z,7.00
2023-02-09T19:50:01.109Z,6.95
2023-02-09T19:52:31.379Z,7.03
2023-02-09T19:55:04.599Z,7.30
2023-02-09T20:00:17.109Z,7.15
2023-02-09T20:02:45.356Z,6.43
2023-02-09T20:05:12.536Z,6.93
2023-02-09T20:07:41.420Z,6.95
2023-02-09T20:10:09.042Z,7.97
2023-02-09T20:12:36.184Z,7.00
2023-02-09T20:15:05.731Z,7.47
2023-02-09T20:17:36.678Z,8.73
2023-02-09T20:20:06.948Z,8.55
2023-02-09T20:22:35.079Z,7.30
2023-02-09T20:25:10.940Z,7.90
2023-02-09T20:27:40.642Z,7.18
2023-02-09T20:30:08.804Z,7.50
2023-02-09T20:35:26.021Z,7.78
2023-02-09T20:37:53.928Z,7.18
2023-02-09T20:40:23.260Z,7.75
2023-02-09T20:43:11.189Z,7.47
2023-02-09T20:45:56.491Z,7.55
2023-02-09T20:48:23.486Z,7.75
2023-02-09T20:50:50.454Z,7.07
2023-02-09T20:56:00.256Z,7.32
2023-02-09T20:58:29.620Z,6.80
2023-02-09T21:03:39.795Z,7.32
2023-02-09T21:06:07.239Z,7.82
2023-02-09T21:08:36.523Z,6.78
2023-02-09T21:11:03.837Z,7.28
2023-02-09T21:16:23.684Z,7.10
2023-02-09T21:18:53.507Z,7.53
2023-02-09T21:21:26.105Z,7.57
2023-02-09T21:23:56.418Z,6.82
2023-02-09T21:26:24.611Z,6.95
2023-02-09T21:31:48.517Z,7.55
2023-02-09T21:37:07.981Z,7.35
2023-02-09T21:39:37.687Z,8.20
2023-02-09T21:42:27.687Z,7.32
2023-02-09T21:47:38.747Z,7.50
2023-02-09T21:50:08.096Z,6.95
2023-02-09T21:57:57.365Z,7.82
2023-02-09T22:00:27.805Z,7.38
2023-02-09T22:02:56.188Z,7.68
2023-02-09T22:05:23.855Z,7.47
2023-02-09T22:07:57.273Z,7.57
2023-02-09T22:15:52.301Z,7.60
2023-02-09T22:21:23.229Z,7.70
2023-02-09T22:24:01.512Z,7.72
2023-02-09T22:31:55.913Z,7.95
2023-02-09T22:37:05.111Z,7.93
2023-02-09T22:42:17.714Z,7.63
2023-02-09T22:44:45.521Z,7.60
2023-02-09T22:52:35.361Z,7.60
2023-02-09T22:55:02.252Z,7.53
2023-02-09T22:57:32.219Z,7.85
2023-02-09T23:02:42.764Z,7.80
2023-02-09T23:05:10.536Z,7.55
2023-02-09T23:07:37.961Z,8.20
2023-02-09T23:10:14.408Z,7.75
2023-02-09T23:12:43.186Z,8.07
2023-02-09T23:15:10.590Z,10.10
2023-02-09T23:17:37.632Z,9.38
2023-02-09T23:20:05.591Z,8.90
2023-02-09T23:22:35.128Z,9.45
2023-02-09T23:25:04.154Z,9.95
2023-02-09T23:27:32.945Z,9.75
2023-02-09T23:29:59.944Z,9.18
2023-02-09T23:32:26.915Z,9.80
2023-02-09T23:34:53.558Z,10.15
2023-02-09T23:37:36.806Z,10.50
2023-02-09T23:40:04.537Z,9.63
2023-02-09T23:42:31.456Z,9.93
2023-02-09T23:44:59.838Z,9.60
2023-02-09T23:47:28.982Z,9.52
2023-02-09T23:49:55.863Z,9.25
2023-02-09T23:52:25.732Z,9.45
2023-02-09T23:54:53.072Z,9.32
